createdAt,value
2022-09-07T00:00:08.610Z,59.25
2022-09-07T00:02:57.739Z,59.34
2022-09-07T00:05:26.523Z,59.46
2022-09-07T00:07:56.309Z,59.45
2022-09-07T00:10:39.370Z,59.43
2022-09-07T00:13:09.049Z,59.60
2022-09-07T00:15:41.110Z,59.58
2022-09-07T00:18:24.615Z,59.80
2022-09-07T00:21:06.810Z,59.78
2022-09-07T00:23:37.665Z,59.94
2022-09-07T00:26:12.867Z,59.85
2022-09-07T00:28:42.827Z,60.10
2022-09-07T00:31:16.172Z,59.88
2022-09-07T00:33:45.910Z,60.22
2022-09-07T00:36:16.619Z,60.42
2022-09-07T00:38:46.827Z,60.30
2022-09-07T00:41:17.286Z,60.35
2022-09-07T00:43:49.827Z,60.32
2022-09-07T00:46:32.365Z,60.59
2022-09-07T00:49:09.706Z,60.54
2022-09-07T00:51:49.620Z,60.66
2022-09-07T00:54:39.913Z,60.86
2022-09-07T00:57:23.538Z,60.92
2022-09-07T00:59:54.320Z,60.87
2022-09-07T01:02:25.076Z,60.97
2022-09-07T01:05:01.366Z,61.07
2022-09-07T01:07:30.196Z,61.12
2022-09-07T01:10:01.817Z,61.11
2022-09-07T01:12:31.651Z,60.92
2022-09-07T01:15:01.318Z,61.38
2022-09-07T01:17:47.782Z,60.87
2022-09-07T01:20:35.558Z,61.11
2022-09-07T01:23:23.425Z,61.03
2022-09-07T01:26:30.110Z,61.20
2022-09-07T01:29:28.219Z,61.25
2022-09-07T01:32:12.282Z,61.40
2022-09-07T01:34:44.563Z,61.56
2022-09-07T01:37:19.254Z,61.65
2022-09-07T01:39:54.486Z,61.53
2022-09-07T01:43:07.332Z,61.59
2022-09-07T01:45:41.484Z,61.62
2022-09-07T01:48:26.784Z,61.81
2022-09-07T01:51:04.353Z,61.97
2022-09-07T01:53:39.803Z,62.19
2022-09-07T01:56:13.914Z,62.25
2022-09-07T01:59:01.515Z,62.25
2022-09-07T02:01:40.319Z,62.45
2022-09-07T02:04:15.992Z,62.39
2022-09-07T02:06:54.441Z,62.22
2022-09-07T02:09:54.007Z,62.59
2022-09-07T02:12:32.857Z,62.63
2022-09-07T02:15:07.989Z,62.54
2022-09-07T02:17:42.486Z,62.79
2022-09-07T02:20:33.781Z,62.68
2022-09-07T02:23:08.939Z,62.68
2022-09-07T02:25:45.367Z,62.76
2022-09-07T02:28:19.458Z,63.02
2022-09-07T02:31:03.181Z,63.22
2022-09-07T02:33:45.800Z,62.83
2022-09-07T02:36:17.868Z,62.94
2022-09-07T02:38:47.302Z,63.18
2022-09-07T02:41:37.449Z,63.21
2022-09-07T02:44:31.977Z,63.25
2022-09-07T02:47:26.092Z,63.44
2022-09-07T02:50:27.405Z,63.59
2022-09-07T02:53:07.235Z,63.70
2022-09-07T02:56:13.897Z,63.86
2022-09-07T02:58:58.096Z,63.68
2022-09-07T03:01:59.265Z,64.06
2022-09-07T03:04:50.357Z,64.13
2022-09-07T03:07:45.242Z,64.37
2022-09-07T03:10:15.762Z,64.08
2022-09-07T03:12:50.652Z,64.68
2022-09-07T03:15:26.824Z,64.46
2022-09-07T03:17:55.987Z,64.50
2022-09-07T03:20:25.528Z,64.49
2022-09-07T03:23:08.098Z,64.53
2022-09-07T03:25:37.566Z,64.74
2022-09-07T03:28:07.287Z,65.00
2022-09-07T03:30:50.227Z,64.92
2022-09-07T03:33:19.708Z,65.09
2022-09-07T03:36:03.063Z,64.93
2022-09-07T03:38:32.651Z,65.37
2022-09-07T03:41:05.313Z,65.40
2022-09-07T03:43:35.340Z,65.29
2022-09-07T03:46:07.194Z,65.27
2022-09-07T03:48:39.415Z,65.60
2022-09-07T03:51:21.871Z,65.99
2022-09-07T03:53:52.019Z,65.81
2022-09-07T03:56:23.414Z,65.73
2022-09-07T03:58:54.600Z,65.88
2022-09-07T04:01:25.818Z,65.96
2022-09-07T04:04:02.167Z,66.07
2022-09-07T04:06:32.741Z,66.16
2022-09-07T04:09:04.730Z,66.43
2022-09-07T04:11:47.259Z,66.33
2022-09-07T04:14:30.126Z,66.31
2022-09-07T04:16:59.341Z,66.17
2022-09-07T04:19:30.310Z,66.24
2022-09-07T04:21:59.509Z,66.03
2022-09-07T04:24:28.989Z,65.95
2022-09-07T04:27:11.466Z,66.21
2022-09-07T04:29:40.577Z,66.19
2022-09-07T04:32:12.465Z,66.26
2022-09-07T04:34:45.119Z,66.29
2022-09-07T04:37:14.266Z,66.65
2022-09-07T04:39:43.786Z,66.68
2022-09-07T04:42:12.886Z,66.53
2022-09-07T04:44:41.983Z,66.78
2022-09-07T04:47:11.356Z,66.78
2022-09-07T04:49:40.701Z,66.99
2022-09-07T04:52:09.906Z,66.87
2022-09-07T04:54:38.988Z,66.86
2022-09-07T04:57:24.621Z,66.89
2022-09-07T04:59:53.466Z,66.97
2022-09-07T05:02:22.708Z,67.21
2022-09-07T05:05:08.556Z,67.23
2022-09-07T05:07:38.191Z,67.62
2022-09-07T05:10:08.198Z,67.72
2022-09-07T05:13:14.190Z,67.77
2022-09-07T05:15:44.619Z,67.89
2022-09-07T05:18:16.989Z,67.92
2022-09-07T05:20:46.165Z,67.79
2022-09-07T05:23:15.504Z,67.50
2022-09-07T05:25:47.485Z,67.65
2022-09-07T05:28:19.447Z,67.68
2022-09-07T05:37:01.209Z,68.21
2022-09-07T05:39:30.908Z,68.36
2022-09-07T05:41:59.974Z,67.99
2022-09-07T05:44:46.305Z,68.41
2022-09-07T05:47:16.046Z,67.92
2022-09-07T05:49:44.882Z,68.11
2022-09-07T05:52:13.520Z,68.22
2022-09-07T05:54:42.909Z,68.27
2022-09-07T05:57:25.566Z,68.11
2022-09-07T05:59:54.185Z,68.30
2022-09-07T06:02:23.270Z,67.79
2022-09-07T06:04:52.162Z,67.91
2022-09-07T06:07:22.705Z,67.93
2022-09-07T06:12:58.296Z,68.03
2022-09-07T06:15:40.826Z,68.11
2022-09-07T06:18:09.769Z,68.35
2022-09-07T06:20:39.459Z,68.05
2022-09-07T06:23:08.356Z,67.99
2022-09-07T06:25:36.980Z,68.01
2022-09-07T06:28:06.137Z,67.97
2022-09-07T06:30:35.020Z,67.83
2022-09-07T06:33:03.973Z,67.86
2022-09-07T06:35:33.461Z,68.14
2022-09-07T06:38:01.988Z,68.05
2022-09-07T06:40:33.789Z,67.90
2022-09-07T06:43:02.409Z,67.69
2022-09-07T06:45:31.763Z,67.22
2022-09-07T06:48:14.299Z,67.18
2022-09-07T06:50:43.820Z,67.07
2022-09-07T06:56:05.569Z,67.16
2022-09-07T06:58:47.974Z,66.84
2022-09-07T07:01:22.393Z,66.67
2022-09-07T07:04:05.191Z,66.67
2022-09-07T07:06:35.668Z,66.09
2022-09-07T07:09:06.936Z,66.47
2022-09-07T07:11:37.771Z,65.78
2022-09-07T07:14:21.320Z,66.37
2022-09-07T07:17:04.500Z,65.76
2022-09-07T07:19:33.183Z,65.72
2022-09-07T07:22:18.651Z,65.43
2022-09-07T07:24:51.855Z,65.47
2022-09-07T07:27:22.265Z,65.40
2022-09-07T07:29:52.676Z,65.43
2022-09-07T07:32:22.243Z,65.00
2022-09-07T07:34:51.726Z,64.70
2022-09-07T07:37:27.774Z,64.52
2022-09-07T07:42:43.692Z,64.17
2022-09-07T07:48:04.702Z,63.84
2022-09-07T07:50:34.319Z,63.67
2022-09-07T07:56:19.443Z,63.01
2022-09-07T07:59:01.982Z,62.55
2022-09-07T08:01:31.398Z,62.30
2022-09-07T08:04:14.016Z,62.29
2022-09-07T08:06:44.251Z,61.92
2022-09-07T08:09:13.327Z,62.06
2022-09-07T08:11:56.288Z,61.93
2022-09-07T08:14:41.890Z,61.25
2022-09-07T08:17:14.029Z,61.05
2022-09-07T08:19:43.674Z,60.76
2022-09-07T08:22:13.291Z,60.79
2022-09-07T08:24:42.357Z,60.77
2022-09-07T08:27:11.605Z,60.85
2022-09-07T08:29:41.112Z,60.74
2022-09-07T08:32:10.660Z,60.03
2022-09-07T08:34:40.155Z,59.73
2022-09-07T08:37:09.225Z,59.28
2022-09-07T08:39:38.320Z,59.40
2022-09-07T08:42:31.229Z,59.31
2022-09-07T08:45:40.448Z,59.19
2022-09-07T08:48:15.194Z,58.70
2022-09-07T08:51:13.656Z,58.54
2022-09-07T08:53:47.367Z,58.51
2022-09-07T08:56:39.727Z,58.23
2022-09-07T08:59:30.781Z,58.06
2022-09-07T09:08:02.624Z,57.20
2022-09-07T09:10:51.309Z,57.17
2022-09-07T09:13:24.749Z,56.78
2022-09-07T09:16:19.844Z,56.05
2022-09-07T09:19:30.515Z,56.07
2022-09-07T09:22:19.265Z,55.52
2022-09-07T09:25:06.069Z,55.67
2022-09-07T09:27:35.415Z,55.42
2022-09-07T09:30:20.324Z,55.29
2022-09-07T09:32:52.977Z,54.67
2022-09-07T09:35:38.315Z,54.17
2022-09-07T09:38:30.577Z,53.82
2022-09-07T09:41:05.513Z,54.14
2022-09-07T09:43:52.272Z,53.84
2022-09-07T09:46:37.534Z,53.24
2022-09-07T09:49:21.176Z,53.36
2022-09-07T09:54:52.740Z,53.23
2022-09-07T10:01:21.105Z,52.95
2022-09-07T10:06:22.231Z,52.44
2022-09-07T10:09:18.012Z,52.00
2022-09-07T10:12:07.393Z,51.63
2022-09-07T10:14:44.647Z,51.96
2022-09-07T10:17:33.905Z,51.77
2022-09-07T10:20:16.323Z,51.75
2022-09-07T10:23:06.853Z,51.98
2022-09-07T10:25:41.932Z,51.35
2022-09-07T10:28:12.882Z,51.10
2022-09-07T10:31:21.408Z,50.96
2022-09-07T10:37:11.827Z,50.37
2022-09-07T10:40:07.260Z,50.36
2022-09-07T10:43:20.729Z,49.99
2022-09-07T10:45:51.455Z,49.81
2022-09-07T10:48:26.512Z,49.46
2022-09-07T10:51:37.641Z,49.72
2022-09-07T10:54:31.318Z,48.74
2022-09-07T10:57:44.582Z,48.92
2022-09-07T11:00:20.639Z,49.09
2022-09-07T11:03:27.371Z,48.96
2022-09-07T11:06:29.733Z,48.70
2022-09-07T11:09:33.761Z,48.61
2022-09-07T11:12:09.364Z,48.34
2022-09-07T11:14:59.407Z,47.96
2022-09-07T11:17:34.979Z,47.75
2022-09-07T11:20:33.199Z,47.64
2022-09-07T11:23:23.099Z,47.58
2022-09-07T11:26:02.635Z,47.50
2022-09-07T11:29:29.123Z,47.72
2022-09-07T11:32:15.983Z,47.31
2022-09-07T11:34:57.881Z,47.08
2022-09-07T11:37:50.279Z,47.01
2022-09-07T11:40:43.507Z,46.62
2022-09-07T11:43:31.347Z,46.54
2022-09-07T11:46:06.637Z,45.93
2022-09-07T11:48:43.794Z,45.62
2022-09-07T11:51:22.930Z,45.23
2022-09-07T11:53:57.838Z,45.00
2022-09-07T11:56:39.138Z,45.07
2022-09-07T11:59:40.227Z,45.03
2022-09-07T12:02:59.333Z,45.25
2022-09-07T12:05:44.984Z,44.68
2022-09-07T12:08:33.229Z,44.68
2022-09-07T12:11:11.299Z,43.99
2022-09-07T12:13:52.281Z,43.86
2022-09-07T12:17:20.451Z,44.14
2022-09-07T12:20:15.659Z,43.77
2022-09-07T12:23:05.711Z,43.49
2022-09-07T12:25:35.577Z,43.73
2022-09-07T12:28:05.007Z,43.59
2022-09-07T12:30:34.537Z,43.27
2022-09-07T12:33:20.401Z,43.28
2022-09-07T12:36:28.915Z,42.77
2022-09-07T12:39:28.901Z,42.85
2022-09-07T12:42:32.939Z,42.27
2022-09-07T12:45:34.151Z,42.47
2022-09-07T12:48:11.052Z,42.19
2022-09-07T12:51:02.990Z,41.71
2022-09-07T12:53:58.005Z,41.66
2022-09-07T13:00:23.712Z,42.03
2022-09-07T13:06:06.431Z,41.69
2022-09-07T13:08:54.562Z,41.91
2022-09-07T13:11:42.742Z,41.49
2022-09-07T13:14:15.066Z,41.32
2022-09-07T13:19:49.481Z,40.80
2022-09-07T13:22:42.176Z,40.67
2022-09-07T13:25:27.733Z,40.09
2022-09-07T13:28:23.597Z,39.29
2022-09-07T13:31:34.227Z,40.39
2022-09-07T13:34:37.543Z,39.95
2022-09-07T13:37:20.189Z,40.16
2022-09-07T13:39:52.922Z,39.65
2022-09-07T13:42:29.714Z,39.64
2022-09-07T13:45:02.704Z,40.07
2022-09-07T13:47:44.358Z,39.58
2022-09-07T13:50:21.687Z,39.23
2022-09-07T13:53:40.946Z,39.23
2022-09-07T13:56:17.163Z,38.57
2022-09-07T13:59:01.206Z,38.37
2022-09-07T14:01:30.825Z,38.52
2022-09-07T14:04:08.317Z,38.87
2022-09-07T14:06:39.370Z,38.67
2022-09-07T14:09:19.024Z,38.97
2022-09-07T14:11:54.674Z,38.87
2022-09-07T14:14:37.357Z,38.70
2022-09-07T14:17:13.035Z,38.60
2022-09-07T14:19:43.331Z,38.15
2022-09-07T14:22:18.384Z,37.91
2022-09-07T14:24:51.268Z,37.57
2022-09-07T14:27:25.831Z,37.44
2022-09-07T14:30:28.535Z,37.53
2022-09-07T14:33:02.516Z,37.71
2022-09-07T14:35:38.890Z,37.80
2022-09-07T14:41:17.456Z,37.55
2022-09-07T14:44:00.543Z,37.63
2022-09-07T14:46:33.310Z,37.93
2022-09-07T14:49:18.905Z,37.08
2022-09-07T14:51:48.712Z,36.50
2022-09-07T14:54:35.327Z,36.76
2022-09-07T14:57:10.633Z,36.65
2022-09-07T14:59:44.720Z,36.32
2022-09-07T15:02:24.620Z,36.40
2022-09-07T15:05:15.300Z,36.09
2022-09-07T15:07:53.134Z,35.85
2022-09-07T15:10:23.164Z,35.89
2022-09-07T15:13:23.215Z,36.28
2022-09-07T15:16:02.182Z,36.42
2022-09-07T15:18:52.713Z,36.14
2022-09-07T15:21:39.750Z,36.29
2022-09-07T15:24:22.315Z,35.68
2022-09-07T15:27:09.568Z,35.51
2022-09-07T15:29:38.957Z,35.34
2022-09-07T15:32:10.633Z,35.43
2022-09-07T15:34:39.525Z,35.24
2022-09-07T15:39:58.823Z,35.25
2022-09-07T15:45:18.238Z,35.72
2022-09-07T15:48:00.835Z,35.76
2022-09-07T15:50:29.452Z,35.76
2022-09-07T15:53:01.042Z,35.94
2022-09-07T15:55:30.066Z,35.65
2022-09-07T15:58:10.962Z,35.59
2022-09-07T16:01:51.593Z,35.82
2022-09-07T16:03:43.313Z,35.55
2022-09-07T16:06:27.331Z,35.62
2022-09-07T16:08:56.728Z,35.90
2022-09-07T16:11:27.766Z,36.21
2022-09-07T16:14:02.996Z,36.28
2022-09-07T16:19:24.321Z,36.38
2022-09-07T16:22:09.378Z,36.45
2022-09-07T16:24:38.844Z,36.44
2022-09-07T16:27:08.425Z,36.49
2022-09-07T16:29:37.908Z,36.58
2022-09-07T16:35:00.900Z,36.69
2022-09-07T16:37:30.156Z,36.77
2022-09-07T16:39:59.466Z,36.95
2022-09-07T16:42:58.078Z,36.91
2022-09-07T16:48:20.207Z,37.11
2022-09-07T16:51:01.135Z,37.16
2022-09-07T16:53:33.727Z,37.18
2022-09-07T16:56:07.482Z,37.43
2022-09-07T16:58:53.517Z,37.37
2022-09-07T17:01:25.471Z,37.43
2022-09-07T17:04:11.287Z,37.92
2022-09-07T17:06:57.128Z,37.68
2022-09-07T17:09:28.895Z,38.25
2022-09-07T17:11:58.076Z,38.67
2022-09-07T17:14:28.756Z,38.97
2022-09-07T17:16:57.583Z,39.17
2022-09-07T17:19:29.939Z,39.23
2022-09-07T17:22:00.805Z,39.22
2022-09-07T17:24:32.171Z,39.33
2022-09-07T17:27:02.463Z,39.49
2022-09-07T17:29:38.353Z,39.99
2022-09-07T17:32:24.412Z,40.32
2022-09-07T17:34:55.991Z,40.76
2022-09-07T17:37:25.736Z,40.91
2022-09-07T17:40:10.022Z,41.08
2022-09-07T17:45:31.116Z,41.25
2022-09-07T17:48:13.727Z,41.78
2022-09-07T17:50:43.263Z,42.15
2022-09-07T17:53:12.138Z,42.48
2022-09-07T17:55:54.431Z,42.94
2022-09-07T17:58:23.069Z,42.84
2022-09-07T18:00:52.807Z,43.17
2022-09-07T18:03:22.349Z,43.11
2022-09-07T18:05:54.801Z,43.25
2022-09-07T18:08:38.840Z,43.60
2022-09-07T18:14:00.667Z,44.37
2022-09-07T18:16:32.695Z,44.52
2022-09-07T18:19:05.087Z,44.65
2022-09-07T18:21:48.714Z,44.75
2022-09-07T18:24:21.663Z,45.15
2022-09-07T18:26:53.292Z,45.16
2022-09-07T18:29:29.365Z,45.42
2022-09-07T18:32:01.140Z,45.71
2022-09-07T18:34:31.884Z,45.78
2022-09-07T18:37:01.573Z,46.20
2022-09-07T18:39:36.356Z,46.43
2022-09-07T18:42:05.590Z,46.73
2022-09-07T18:47:39.909Z,46.76
2022-09-07T18:52:53.098Z,47.05
2022-09-07T18:55:24.015Z,47.16
2022-09-07T18:57:53.388Z,46.68
2022-09-07T19:00:22.323Z,47.23
2022-09-07T19:02:51.597Z,47.19
2022-09-07T19:08:10.013Z,47.10
2022-09-07T19:10:39.411Z,47.21
2022-09-07T19:13:08.732Z,47.43
2022-09-07T19:15:38.320Z,46.94
2022-09-07T19:18:08.915Z,46.76
2022-09-07T19:20:40.912Z,46.95
2022-09-07T19:23:11.909Z,46.39
2022-09-07T19:25:41.870Z,46.20
2022-09-07T19:28:10.713Z,45.96
2022-09-07T19:30:39.692Z,45.90
2022-09-07T19:33:12.350Z,46.29
2022-09-07T19:35:42.987Z,46.63
2022-09-07T19:38:13.036Z,46.09
2022-09-07T19:40:41.976Z,46.49
2022-09-07T19:43:10.792Z,46.26
2022-09-07T19:45:41.003Z,46.70
2022-09-07T19:48:10.783Z,47.33
2022-09-07T19:50:40.750Z,47.98
2022-09-07T19:53:09.550Z,48.12
2022-09-07T19:55:38.815Z,48.26
2022-09-07T19:58:08.137Z,48.82
2022-09-07T20:00:39.692Z,49.06
2022-09-07T20:03:11.033Z,49.77
2022-09-07T20:05:42.209Z,49.64
2022-09-07T20:08:11.297Z,49.68
2022-09-07T20:10:40.596Z,49.81
2022-09-07T20:13:09.531Z,50.30
2022-09-07T20:15:43.262Z,49.98
2022-09-07T20:18:12.415Z,49.87
2022-09-07T20:20:40.979Z,49.65
2022-09-07T20:26:09.584Z,49.89
2022-09-07T20:28:41.142Z,49.97
2022-09-07T20:31:15.760Z,50.06
2022-09-07T20:33:46.731Z,49.85
2022-09-07T20:36:18.416Z,50.19
2022-09-07T20:38:55.699Z,50.50
2022-09-07T20:41:30.375Z,50.43
2022-09-07T20:44:01.554Z,50.86
2022-09-07T20:46:31.668Z,50.54
2022-09-07T20:49:02.138Z,50.53
2022-09-07T20:51:31.531Z,50.60
2022-09-07T20:54:00.687Z,50.75
2022-09-07T20:56:31.343Z,50.68
2022-09-07T20:59:02.402Z,50.76
2022-09-07T21:01:33.655Z,50.86
2022-09-07T21:04:02.890Z,51.18
2022-09-07T21:06:33.195Z,50.88
2022-09-07T21:09:15.545Z,51.13
2022-09-07T21:11:48.646Z,51.08
2022-09-07T21:14:21.542Z,50.94
2022-09-07T21:17:04.049Z,51.03
2022-09-07T21:19:33.647Z,51.23
2022-09-07T21:22:02.947Z,51.31
2022-09-07T21:24:32.237Z,51.79
2022-09-07T21:27:14.685Z,51.51
2022-09-07T21:29:43.840Z,51.61
2022-09-07T21:32:13.035Z,51.40
2022-09-07T21:34:42.518Z,51.64
2022-09-07T21:37:11.592Z,51.68
2022-09-07T21:39:40.593Z,51.85
2022-09-07T21:42:10.058Z,51.90
2022-09-07T21:44:39.184Z,51.65
2022-09-07T21:47:08.622Z,51.85
2022-09-07T21:49:37.386Z,51.76
2022-09-07T21:52:06.236Z,52.04
2022-09-07T21:54:35.330Z,52.13
2022-09-07T21:57:04.958Z,52.67
2022-09-07T21:59:34.787Z,52.59
2022-09-07T22:02:03.684Z,52.49
2022-09-07T22:04:46.190Z,52.54
2022-09-07T22:07:15.210Z,52.38
2022-09-07T22:09:44.253Z,52.24
2022-09-07T22:12:26.663Z,51.99
2022-09-07T22:15:09.486Z,52.01
2022-09-07T22:17:39.904Z,52.19
2022-09-07T22:20:12.845Z,52.26
2022-09-07T22:22:41.904Z,52.11
2022-09-07T22:25:10.753Z,52.02
2022-09-07T22:27:41.259Z,52.29
2022-09-07T22:30:11.154Z,52.39
2022-09-07T22:32:40.450Z,52.35
2022-09-07T22:35:10.524Z,52.45
2022-09-07T22:37:39.612Z,52.70
2022-09-07T22:40:10.034Z,52.78
2022-09-07T22:42:39.347Z,52.75
2022-09-07T22:45:09.525Z,53.10
2022-09-07T22:47:51.984Z,52.81
2022-09-07T22:50:21.656Z,52.89
2022-09-07T22:52:50.728Z,52.95
2022-09-07T22:55:33.183Z,53.00
2022-09-07T22:58:15.824Z,52.98
2022-09-07T23:01:02.495Z,53.08
2022-09-07T23:03:45.962Z,53.15
2022-09-07T23:06:21.978Z,52.95
2022-09-07T23:09:11.041Z,53.05
2022-09-07T23:11:40.983Z,52.90
2022-09-07T23:14:23.935Z,53.10
2022-09-07T23:17:06.393Z,53.32
2022-09-07T23:19:35.471Z,53.52
2022-09-07T23:22:04.564Z,53.46
2022-09-07T23:24:34.302Z,53.51
2022-09-07T23:27:04.086Z,53.31
2022-09-07T23:29:47.248Z,53.56
2022-09-07T23:32:16.157Z,53.93
2022-09-07T23:34:59.231Z,53.96
2022-09-07T23:37:28.129Z,54.06
2022-09-07T23:39:57.566Z,54.04
2022-09-07T23:42:40.483Z,54.17
2022-09-07T23:45:22.832Z,54.06
2022-09-07T23:47:52.465Z,54.20
2022-09-07T23:50:34.974Z,54.18
2022-09-07T23:53:18.832Z,53.89
2022-09-07T23:55:53.233Z,54.03
2022-09-07T23:58:23.683Z,54.16
